Hlavní strana
METAR-TAF:

METAR-TAF

Letiště :

Stockholm, Švédsko

zeměpisná šířka: 59-21N, zeměpisná délka: 017-57E, výška: 14 m

Aktuální stav počasí

Zpráva byla vytvořena před 35 minutami, v 11:50 UTC
Východní vítr 10 kt, proměnlivý mezi severovýchodním a východojihovýchodním
Teplota 19°C
Vlhkost vzduchu 49%
Tlak 1004 hPa
Viditelnost 10 km a více
Žádná oblačnost pod 1500 m, nevyskytují se cumulonimby.

METAR: ESSB 041150Z 09010KT 050V110 CAVOK 19/08 Q1004

Čas: 14:25 (12:25 UTC)

Předpověď počasí

Zpráva byla vytvořena před 55 minutami, v 11:30 UTC
Předpověď platná od 04 v 12 UTC do 04 v 21 UTC
Východní vítr 10 kt
Viditelnost 10 km a více
Žádná oblačnost pod 1500 m, nevyskytují se cumulonimby.

TAF: ESSB 041130Z 0412/0421 08010KT CAVOK

Stav a předpovědi počasí z více než 4 000 letišť (zprávy METAR a TAF).

Červené a žluté tečky na mapě představují dostupné meteorologické stanice.

Když kurzor umístíte na tečku, zobrazí se název stanice.

Pak kliknutím zobrazíte stav a předpověď počasí.

Chcete-li změnit mapu, kliknutím na zelené tlačítko se znaménkem +mapu přiblížíte, kliknutím na zelené tlačítko se znaménkem – mapu oddálíte a kliknutím na zelené šipky přejdete na sousední mapy.


METAR-TAF: